Time,TemperatureF,DewpointF,PressureIn,WindDirection,WindDirectionDegrees,WindSpeedMPH,WindSpeedGustMPH,Humidity,HourlyPrecipIn,Conditions,Clouds,dailyrainin,SoftwareType,DateUTC
2013-06-04 00:01:00,74.9,74.0,29.99,West,261,0.0,0.0,97,0.00,RA,,0.00,WeatherDisplay:10.37,2013-06-04 04:01:00,
2013-06-04 00:06:00,74.9,74.0,29.99,West,261,0.0,0.0,97,0.00,RA,,0.00,WeatherDisplay:10.37,2013-06-04 04:06:00,
2013-06-04 00:11:00,74.9,74.0,29.99,West,261,0.0,0.0,97,0.00,CLR,,0.00,WeatherDisplay:10.37,2013-06-04 04:11:00,
2013-06-04 00:16:00,75.1,74.5,29.99,SSW,192,2.3,2.3,98,0.00,CLR,,0.00,WeatherDisplay:10.37,2013-06-04 04:16:00,
2013-06-04 00:21:00,75.1,74.5,29.99,SSE,163,3.5,3.5,98,0.00,CLR,,0.00,WeatherDisplay:10.37,2013-06-04 04:21:00,
2013-06-04 00:26:00,75.2,74.6,29.99,SSE,151,3.5,3.5,98,0.00,CLR,,0.00,WeatherDisplay:10.37,2013-06-04 04:26:00,
2013-06-04 00:31:00,75.2,74.6,29.99,South,184,5.8,5.8,98,0.00,CLR,,0.00,WeatherDisplay:10.37,2013-06-04 04:31:00,
2013-06-04 00:36:00,75.2,74.3,29.99,South,188,5.0,5.0,97,0.00,CLR,,0.00,WeatherDisplay:10.37,2013-06-04 04:36:00,
2013-06-04 00:41:00,75.1,74.2,29.99,SSE,168,4.6,4.6,97,0.00,CLR,,0.00,WeatherDisplay:10.37,2013-06-04 04:41:00,
2013-06-04 00:46:00,75.0,74.1,29.99,SSE,166,5.8,5.8,97,0.00,CLR,,0.00,WeatherDisplay:10.37,2013-06-04 04:46:00,
2013-06-04 00:51:00,74.9,74.0,29.98,SSE,148,6.0,6.0,97,0.00,CLR,,0.00,WeatherDisplay:10.37,2013-06-04 04:51:00,
2013-06-04 00:56:00,74.8,73.9,29.98,SSE,153,4.0,4.0,97,0.00,CLR,,0.00,WeatherDisplay:10.37,2013-06-04 04:56:00,
2013-06-04 01:01:00,74.8,73.9,29.98,ESE,119,3.5,3.5,97,0.00,CLR,,0.00,WeatherDisplay:10.37,2013-06-04 05:01:00,
2013-06-04 01:06:00,74.7,73.8,29.98,ESE,111,4.6,4.6,97,0.01,RA,,0.01,WeatherDisplay:10.37,2013-06-04 05:06:00,
2013-06-04 01:11:00,74.3,73.4,29.97,ESE,121,3.5,3.5,97,0.01,RA,,0.01,WeatherDisplay:10.37,2013-06-04 05:11:00,
2013-06-04 01:16:00,74.2,73.3,29.97,ESE,105,4.6,4.6,97,0.01,,,0.01,WeatherDisplay:10.37,2013-06-04 05:16:00,
2013-06-04 01:21:00,74.1,73.2,29.97,ESE,116,3.5,3.5,97,0.01,CLR,,0.01,WeatherDisplay:10.37,2013-06-04 05:21:00,
2013-06-04 01:26:00,74.0,73.1,29.97,East,93,3.5,3.5,97,0.01,CLR,,0.01,WeatherDisplay:10.37,2013-06-04 05:26:00,
2013-06-04 01:31:00,73.8,72.9,29.97,East,97,4.0,4.0,97,0.01,CLR,,0.01,WeatherDisplay:10.37,2013-06-04 05:31:00,
2013-06-04 01:36:00,73.7,72.8,29.97,ENE,74,3.5,3.5,97,0.01,CLR,,0.01,WeatherDisplay:10.37,2013-06-04 05:36:00,
2013-06-04 01:41:00,73.6,72.7,29.96,East,88,2.3,2.3,97,0.01,CLR,,0.01,WeatherDisplay:10.37,2013-06-04 05:41:00,
2013-06-04 01:46:00,73.6,72.4,29.96,ESE,103,3.5,3.5,96,0.01,CLR,,0.01,WeatherDisplay:10.37,2013-06-04 05:46:00,
2013-06-04 01:51:00,73.5,72.3,29.96,SE,128,3.5,3.5,96,0.01,CLR,,0.01,WeatherDisplay:10.37,2013-06-04 05:51:00,
2013-06-04 01:56:00,73.4,72.5,29.96,SSE,163,2.3,2.3,97,0.01,CLR,,0.01,WeatherDisplay:10.37,2013-06-04 05:56:00,
2013-06-04 02:01:00,73.4,72.5,29.96,South,170,2.3,2.3,97,0.01,CLR,,0.01,WeatherDisplay:10.37,2013-06-04 06:01:00,
2013-06-04 02:06:00,73.4,72.5,29.96,South,173,1.2,0.0,97,0.00,CLR,,0.01,WeatherDisplay:10.37,2013-06-04 06:06:00,
2013-06-04 02:11:00,73.4,72.5,29.96,South,173,1.2,1.2,97,0.00,CLR,,0.01,WeatherDisplay:10.37,2013-06-04 06:11:00,
2013-06-04 02:16:00,73.4,72.5,29.96,South,173,1.2,1.2,97,0.00,CLR,,0.01,WeatherDisplay:10.37,2013-06-04 06:16:00,
2013-06-04 02:21:00,73.4,72.5,29.96,South,173,0.0,0.0,97,0.00,CLR,,0.01,WeatherDisplay:10.37,2013-06-04 06:21:00,
2013-06-04 02:26:00,73.4,72.5,29.96,South,173,0.0,0.0,97,0.00,CLR,,0.01,WeatherDisplay:10.37,2013-06-04 06:26:00,
2013-06-04 02:31:00,73.4,72.5,29.95,South,173,0.0,0.0,97,0.00,CLR,,0.01,WeatherDisplay:10.37,2013-06-04 06:31:00,
2013-06-04 02:36:00,73.3,72.4,29.95,South,173,2.0,2.0,97,0.00,CLR,,0.01,WeatherDisplay:10.37,2013-06-04 06:36:00,
2013-06-04 02:41:00,73.3,72.4,29.95,South,173,2.3,2.3,97,0.00,CLR,,0.01,WeatherDisplay:10.37,2013-06-04 06:41:00,
2013-06-04 02:46:00,73.3,72.4,29.96,South,173,0.0,0.0,97,0.00,CLR,,0.01,WeatherDisplay:10.37,2013-06-04 06:46:00,
2013-06-04 02:51:00,73.3,72.4,29.96,South,173,1.2,1.2,97,0.00,CLR,,0.01,WeatherDisplay:10.37,2013-06-04 06:51:00,
2013-06-04 02:56:00,73.3,72.4,29.95,South,173,0.0,0.0,97,0.00,CLR,,0.01,WeatherDisplay:10.37,2013-06-04 06:56:00,
2013-06-04 03:01:00,73.3,72.4,29.95,South,173,0.0,0.0,97,0.00,CLR,,0.01,WeatherDisplay:10.37,2013-06-04 07:01:00,
2013-06-04 03:06:00,73.2,72.3,29.95,South,173,0.0,0.0,97,0.00,CLR,,0.01,WeatherDisplay:10.37,2013-06-04 07:06:00,
2013-06-04 03:11:00,73.3,72.4,29.95,South,173,0.0,0.0,97,0.00,CLR,,0.01,WeatherDisplay:10.37,2013-06-04 07:11:00,
2013-06-04 03:16:00,73.3,72.4,29.95,South,173,0.0,0.0,97,0.00,CLR,,0.01,WeatherDisplay:10.37,2013-06-04 07:16:00,
2013-06-04 03:21:00,73.3,72.4,29.94,South,173,0.0,0.0,97,0.00,CLR,,0.01,WeatherDisplay:10.37,2013-06-04 07:21:00,
2013-06-04 03:26:00,73.3,72.4,29.94,South,173,0.0,0.0,97,0.00,CLR,,0.01,WeatherDisplay:10.37,2013-06-04 07:26:00,
2013-06-04 03:31:00,73.3,72.4,29.94,South,173,0.0,0.0,97,0.00,CLR,,0.01,WeatherDisplay:10.37,2013-06-04 07:31:00,
2013-06-04 03:36:00,73.3,72.4,29.94,South,173,0.0,0.0,97,0.00,CLR,,0.01,WeatherDisplay:10.37,2013-06-04 07:36:00,
2013-06-04 03:41:00,73.4,72.5,29.93,South,173,0.0,0.0,97,0.00,CLR,,0.01,WeatherDisplay:10.37,2013-06-04 07:41:00,
2013-06-04 03:46:00,73.5,72.6,29.93,South,173,0.0,0.0,97,0.00,CLR,,0.01,WeatherDisplay:10.37,2013-06-04 07:46:00,
2013-06-04 03:51:00,73.5,72.6,29.93,South,173,1.2,1.2,97,0.00,CLR,,0.01,WeatherDisplay:10.37,2013-06-04 07:51:00,
2013-06-04 03:56:00,73.6,72.7,29.93,SSE,167,2.0,2.0,97,0.00,CLR,,0.01,WeatherDisplay:10.37,2013-06-04 07:56:00,
2013-06-04 04:01:00,73.7,72.8,29.92,SSE,158,3.5,3.5,97,0.00,CLR,,0.01,WeatherDisplay:10.37,2013-06-04 08:01:00,
2013-06-04 04:06:00,73.8,72.9,29.92,East,83,2.3,2.3,97,0.00,CLR,,0.01,WeatherDisplay:10.37,2013-06-04 08:06:00,
2013-06-04 04:11:00,73.8,72.9,29.92,ENE,71,3.5,3.5,97,0.00,CLR,,0.01,WeatherDisplay:10.37,2013-06-04 08:11:00,
2013-06-04 04:16:00,73.9,73.0,29.92,ENE,63,3.5,3.5,97,0.00,CLR,,0.01,WeatherDisplay:10.37,2013-06-04 08:16:00,
2013-06-04 04:21:00,73.9,73.0,29.92,ENE,63,2.3,2.3,97,0.00,CLR,,0.01,WeatherDisplay:10.37,2013-06-04 08:21:00,
2013-06-04 04:26:00,73.9,73.0,29.92,ENE,62,1.2,1.2,97,0.00,CLR,,0.01,WeatherDisplay:10.37,2013-06-04 08:26:00,
2013-06-04 04:31:00,73.9,73.0,29.92,ENE,65,0.0,0.1,97,0.00,CLR,,0.01,WeatherDisplay:10.37,2013-06-04 08:31:00,
2013-06-04 04:36:00,73.9,73.0,29.93,ENE,65,0.0,0.0,97,0.00,CLR,,0.01,WeatherDisplay:10.37,2013-06-04 08:36:00,
2013-06-04 04:41:00,73.9,73.0,29.93,ENE,65,0.0,0.0,97,0.00,CLR,,0.01,WeatherDisplay:10.37,2013-06-04 08:41:00,
2013-06-04 04:46:00,73.9,73.0,29.93,ENE,65,0.0,0.0,97,0.00,CLR,,0.01,WeatherDisplay:10.37,2013-06-04 08:46:00,
2013-06-04 04:51:00,73.9,73.0,29.93,ENE,65,0.0,0.0,97,0.00,CLR,,0.01,WeatherDisplay:10.37,2013-06-04 08:51:00,
2013-06-04 04:56:00,73.9,73.0,29.93,ENE,65,0.0,0.0,97,0.00,CLR,,0.01,WeatherDisplay:10.37,2013-06-04 08:56:00,
2013-06-04 05:01:00,73.9,73.0,29.93,SSW,196,2.3,2.3,97,0.00,CLR,,0.01,WeatherDisplay:10.37,2013-06-04 09:01:00,
2013-06-04 05:06:00,74.0,73.1,29.93,SSW,196,1.2,1.2,97,0.00,CLR,,0.01,WeatherDisplay:10.37,2013-06-04 09:06:00,
2013-06-04 05:11:00,74.0,73.1,29.93,SSW,196,0.0,0.0,97,0.00,CLR,,0.01,WeatherDisplay:10.37,2013-06-04 09:11:00,
2013-06-04 05:16:00,74.0,73.1,29.93,SSW,196,0.0,0.0,97,0.00,CLR,,0.01,WeatherDisplay:10.37,2013-06-04 09:16:00,
2013-06-04 05:21:00,74.0,73.1,29.93,SSW,196,0.0,0.0,97,0.00,CLR,,0.01,WeatherDisplay:10.37,2013-06-04 09:21:00,
2013-06-04 05:26:00,74.0,73.1,29.93,SSW,196,0.0,0.0,97,0.00,CLR,,0.01,WeatherDisplay:10.37,2013-06-04 09:26:00,
2013-06-04 05:31:00,74.0,73.1,29.93,SSW,196,2.3,2.3,97,0.00,CLR,,0.01,WeatherDisplay:10.37,2013-06-04 09:31:00,
2013-06-04 05:36:00,74.0,73.1,29.93,SSW,196,3.5,3.5,97,0.00,CLR,,0.01,WeatherDisplay:10.37,2013-06-04 09:36:00,
2013-06-04 05:41:00,74.0,73.1,29.93,SSW,196,1.2,0.0,97,0.00,CLR,,0.01,WeatherDisplay:10.37,2013-06-04 09:41:00,
2013-06-04 05:46:00,74.0,73.1,29.93,SSW,196,0.0,0.0,97,0.00,CLR,,0.01,WeatherDisplay:10.37,2013-06-04 09:46:00,
2013-06-04 05:51:00,74.0,73.1,29.92,SSW,196,1.2,1.2,97,0.00,CLR,,0.01,WeatherDisplay:10.37,2013-06-04 09:51:00,
2013-06-04 05:56:00,73.9,73.0,29.92,SSW,196,1.2,1.2,97,0.00,CLR,,0.01,WeatherDisplay:10.37,2013-06-04 09:56:00,
2013-06-04 06:01:00,73.9,73.0,29.92,SSW,196,1.0,1.0,97,0.00,CLR,,0.01,WeatherDisplay:10.37,2013-06-04 10:01:00,
2013-06-04 06:06:00,73.9,73.0,29.93,SSW,196,2.3,2.3,97,0.00,CLR,,0.01,WeatherDisplay:10.37,2013-06-04 10:06:00,
2013-06-04 06:11:00,73.9,73.0,29.92,SSW,196,0.0,0.0,97,0.00,CLR,,0.01,WeatherDisplay:10.37,2013-06-04 10:11:00,
2013-06-04 06:16:00,74.0,73.1,29.93,SSW,196,0.0,0.0,97,0.00,CLR,,0.01,WeatherDisplay:10.37,2013-06-04 10:16:00,
2013-06-04 06:21:00,74.0,73.1,29.93,SSW,196,1.2,1.2,97,0.00,CLR,,0.01,WeatherDisplay:10.37,2013-06-04 10:21:00,
2013-06-04 06:26:00,74.0,73.1,29.93,SSW,196,2.3,2.3,97,0.00,CLR,,0.01,WeatherDisplay:10.37,2013-06-04 10:26:00,
2013-06-04 06:31:00,73.9,73.0,29.93,SSW,196,2.3,2.3,97,0.00,CLR,,0.01,WeatherDisplay:10.37,2013-06-04 10:31:00,
2013-06-04 06:36:00,73.9,73.0,29.93,SSW,196,2.3,2.3,97,0.00,CLR,,0.01,WeatherDisplay:10.37,2013-06-04 10:36:00,
2013-06-04 06:41:00,74.0,73.1,29.93,SSW,198,2.3,2.3,97,0.00,CLR,,0.01,WeatherDisplay:10.37,2013-06-04 10:41:00,
2013-06-04 06:46:00,74.2,73.3,29.93,SSW,202,3.5,3.5,97,0.00,CLR,,0.01,WeatherDisplay:10.37,2013-06-04 10:46:00,
2013-06-04 06:51:00,74.3,73.4,29.94,SW,218,4.6,4.6,97,0.00,CLR,,0.01,WeatherDisplay:10.37,2013-06-04 10:51:00,
2013-06-04 06:56:00,74.4,73.5,29.94,SW,215,2.3,2.3,97,0.00,CLR,,0.01,WeatherDisplay:10.37,2013-06-04 10:56:00,
2013-06-04 07:01:00,74.4,73.5,29.94,SW,215,0.0,0.0,97,0.00,CLR,,0.01,WeatherDisplay:10.37,2013-06-04 11:01:00,
2013-06-04 07:06:00,74.5,73.6,29.94,SW,215,0.0,0.0,97,0.00,CLR,,0.01,WeatherDisplay:10.37,2013-06-04 11:06:00,
2013-06-04 07:11:00,74.6,73.7,29.94,SW,215,1.0,1.0,97,0.00,CLR,,0.01,WeatherDisplay:10.37,2013-06-04 11:11:00,
2013-06-04 07:16:00,74.6,73.7,29.94,SW,215,0.0,0.0,97,0.00,CLR,,0.01,WeatherDisplay:10.37,2013-06-04 11:16:00,
2013-06-04 07:21:00,74.7,73.8,29.94,SW,215,0.0,0.0,97,0.00,CLR,,0.01,WeatherDisplay:10.37,2013-06-04 11:21:00,
2013-06-04 07:26:00,74.8,73.9,29.94,SW,215,0.0,0.0,97,0.00,CLR,,0.01,WeatherDisplay:10.37,2013-06-04 11:26:00,
2013-06-04 07:31:00,74.8,73.9,29.95,SW,215,0.0,0.2,97,0.00,CLR,,0.01,WeatherDisplay:10.37,2013-06-04 11:31:00,
2013-06-04 07:36:00,74.8,73.9,29.94,SW,215,1.2,1.2,97,0.00,CLR,,0.01,WeatherDisplay:10.37,2013-06-04 11:36:00,
2013-06-04 07:41:00,74.9,74.0,29.94,SW,215,2.3,2.3,97,0.00,CLR,,0.01,WeatherDisplay:10.37,2013-06-04 11:41:00,
2013-06-04 07:46:00,74.9,73.7,29.95,SW,215,0.0,0.0,96,0.00,CLR,,0.01,WeatherDisplay:10.37,2013-06-04 11:46:00,
2013-06-04 07:51:00,74.9,73.7,29.95,SW,215,0.0,0.0,96,0.00,CLR,,0.01,WeatherDisplay:10.37,2013-06-04 11:51:00,
2013-06-04 07:56:00,75.0,73.8,29.95,SW,215,0.0,0.0,96,0.00,CLR,,0.01,WeatherDisplay:10.37,2013-06-04 11:56:00,
2013-06-04 08:01:00,75.1,73.9,29.95,SW,215,0.0,0.0,96,0.00,CLR,,0.01,WeatherDisplay:10.37,2013-06-04 12:01:00,
2013-06-04 08:06:00,75.3,74.1,29.95,SW,215,0.0,0.0,96,0.00,CLR,,0.01,WeatherDisplay:10.37,2013-06-04 12:06:00,
2013-06-04 08:11:00,75.4,74.2,29.96,SW,215,0.0,0.0,96,0.00,CLR,,0.01,WeatherDisplay:10.37,2013-06-04 12:11:00,
2013-06-04 08:16:00,75.5,74.3,29.96,SW,215,0.0,0.0,96,0.00,CLR,,0.01,WeatherDisplay:10.37,2013-06-04 12:16:00,
2013-06-04 08:21:00,75.7,74.8,29.96,SW,215,0.0,0.0,97,0.00,CLR,,0.01,WeatherDisplay:10.37,2013-06-04 12:21:00,
2013-06-04 08:26:00,75.9,75.0,29.96,SW,215,0.0,0.0,97,0.00,CLR,,0.01,WeatherDisplay:10.37,2013-06-04 12:26:00,
2013-06-04 08:31:00,76.0,74.8,29.97,SW,215,0.0,0.0,96,0.00,CLR,,0.01,WeatherDisplay:10.37,2013-06-04 12:31:00,
2013-06-04 08:36:00,76.0,74.5,29.97,SW,215,2.3,2.3,95,0.00,CLR,,0.01,WeatherDisplay:10.37,2013-06-04 12:36:00,
2013-06-04 08:41:00,76.0,74.5,29.97,SW,215,0.0,0.0,95,0.00,CLR,,0.01,WeatherDisplay:10.37,2013-06-04 12:41:00,
2013-06-04 08:46:00,76.4,75.2,29.97,SSW,213,0.0,0.0,96,0.00,CLR,,0.01,WeatherDisplay:10.37,2013-06-04 12:46:00,
2013-06-04 08:51:00,76.5,75.0,29.97,SSW,213,2.3,2.3,95,0.00,CLR,,0.01,WeatherDisplay:10.37,2013-06-04 12:51:00,
2013-06-04 08:56:00,76.7,75.2,29.97,SSW,213,1.2,1.2,95,0.00,CLR,,0.01,WeatherDisplay:10.37,2013-06-04 12:56:00,
2013-06-04 09:01:00,76.9,75.0,29.98,SSW,213,1.2,1.2,94,0.00,CLR,,0.01,WeatherDisplay:10.37,2013-06-04 13:01:00,
2013-06-04 09:06:00,77.1,75.2,29.98,SSW,213,1.2,1.2,94,0.00,CLR,,0.01,WeatherDisplay:10.37,2013-06-04 13:06:00,
2013-06-04 09:11:00,77.2,75.3,29.98,SSW,213,2.3,2.3,94,0.00,CLR,,0.01,WeatherDisplay:10.37,2013-06-04 13:11:00,
2013-06-04 09:16:00,77.3,75.4,29.98,SSW,213,1.2,1.2,94,0.00,CLR,,0.01,WeatherDisplay:10.37,2013-06-04 13:16:00,
2013-06-04 09:21:00,77.4,75.2,29.98,SSW,213,1.2,1.2,93,0.00,CLR,,0.01,WeatherDisplay:10.37,2013-06-04 13:21:00,
2013-06-04 09:26:00,77.2,74.4,29.99,SSW,213,1.2,1.2,91,0.00,CLR,,0.01,WeatherDisplay:10.37,2013-06-04 13:26:00,
2013-06-04 09:31:00,77.3,74.5,29.99,SSW,213,0.0,0.0,91,0.00,CLR,,0.01,WeatherDisplay:10.37,2013-06-04 13:31:00,
2013-06-04 09:36:00,77.4,74.6,29.99,SSW,213,0.0,0.0,91,0.00,CLR,,0.01,WeatherDisplay:10.37,2013-06-04 13:36:00,
2013-06-04 09:41:00,77.6,75.1,29.99,SSW,213,0.0,0.0,92,0.00,CLR,,0.01,WeatherDisplay:10.37,2013-06-04 13:41:00,
2013-06-04 09:46:00,77.5,74.7,30.00,SSW,213,1.2,1.2,91,0.00,CLR,,0.01,WeatherDisplay:10.37,2013-06-04 13:46:00,
2013-06-04 09:51:00,77.6,74.8,30.00,SSW,213,0.0,0.0,91,0.00,CLR,,0.01,WeatherDisplay:10.37,2013-06-04 13:51:00,
2013-06-04 09:56:00,77.6,75.1,30.00,SSW,213,1.2,0.0,92,0.00,CLR,,0.01,WeatherDisplay:10.37,2013-06-04 13:56:00,
2013-06-04 10:01:00,77.6,75.1,30.00,SSW,213,0.0,0.0,92,0.00,CLR,,0.01,WeatherDisplay:10.37,2013-06-04 14:01:00,
2013-06-04 10:06:00,77.7,75.2,30.00,SSW,213,0.0,0.0,92,0.00,CLR,,0.01,WeatherDisplay:10.37,2013-06-04 14:06:00,
2013-06-04 10:11:00,77.6,74.8,30.00,SSW,213,0.0,0.0,91,0.00,CLR,,0.01,WeatherDisplay:10.37,2013-06-04 14:11:00,
2013-06-04 10:16:00,77.6,74.8,30.01,SSW,213,1.2,1.2,91,0.00,CLR,,0.01,WeatherDisplay:10.37,2013-06-04 14:16:00,
2013-06-04 10:21:00,77.5,75.0,30.01,SSW,213,0.0,0.0,92,0.00,CLR,,0.01,WeatherDisplay:10.37,2013-06-04 14:21:00,
2013-06-04 10:26:00,77.5,74.7,30.01,SSW,213,1.2,1.2,91,0.00,CLR,,0.01,WeatherDisplay:10.37,2013-06-04 14:26:00,
2013-06-04 10:31:00,77.5,74.7,30.01,SSW,213,0.0,0.0,91,0.00,CLR,,0.01,WeatherDisplay:10.37,2013-06-04 14:31:00,
2013-06-04 10:36:00,77.6,75.1,30.02,SSW,213,0.0,0.0,92,0.00,CLR,,0.01,WeatherDisplay:10.37,2013-06-04 14:36:00,
2013-06-04 10:41:00,77.8,75.3,30.02,SSW,213,0.0,0.0,92,0.00,CLR,,0.01,WeatherDisplay:10.37,2013-06-04 14:41:00,
2013-06-04 10:46:00,77.8,75.3,30.02,SSW,194,2.3,2.3,92,0.00,CLR,,0.01,WeatherDisplay:10.37,2013-06-04 14:46:00,
2013-06-04 10:51:00,78.0,75.5,30.02,SSW,196,2.3,0.0,92,0.00,CLR,,0.01,WeatherDisplay:10.37,2013-06-04 14:51:00,
2013-06-04 10:56:00,77.9,75.1,30.02,SW,225,3.5,3.5,91,0.00,CLR,,0.01,WeatherDisplay:10.37,2013-06-04 14:56:00,
2013-06-04 11:01:00,77.9,74.7,30.03,SW,226,3.5,3.5,90,0.00,CLR,,0.01,WeatherDisplay:10.37,2013-06-04 15:01:00,
2013-06-04 11:06:00,77.9,74.7,30.03,WSW,240,3.5,3.5,90,0.00,CLR,,0.01,WeatherDisplay:10.37,2013-06-04 15:06:00,
2013-06-04 11:11:00,78.0,74.8,30.03,WSW,240,2.3,2.3,90,0.00,CLR,,0.01,WeatherDisplay:10.37,2013-06-04 15:11:00,
2013-06-04 11:16:00,78.2,75.0,30.03,WSW,240,2.3,2.3,90,0.00,CLR,,0.01,WeatherDisplay:10.37,2013-06-04 15:16:00,
2013-06-04 11:21:00,78.5,75.3,30.02,WSW,240,1.2,0.0,90,0.00,CLR,,0.01,WeatherDisplay:10.37,2013-06-04 15:21:00,
2013-06-04 11:26:00,79.0,76.1,30.02,NNW,333,3.0,3.0,91,0.00,CLR,,0.01,WeatherDisplay:10.37,2013-06-04 15:26:00,
2013-06-04 11:31:00,79.5,76.0,30.02,NNW,334,2.3,2.3,89,0.00,CLR,,0.01,WeatherDisplay:10.37,2013-06-04 15:31:00,
2013-06-04 11:36:00,79.8,75.9,30.02,North,355,3.5,3.5,88,0.00,CLR,,0.01,WeatherDisplay:10.37,2013-06-04 15:36:00,
2013-06-04 11:41:00,80.0,75.8,30.02,North,355,2.3,2.3,87,0.00,CLR,,0.01,WeatherDisplay:10.37,2013-06-04 15:41:00,
2013-06-04 11:46:00,80.2,75.3,30.02,North,360,1.2,1.2,85,0.00,CLR,,0.01,WeatherDisplay:10.37,2013-06-04 15:46:00,
2013-06-04 11:51:00,80.4,75.8,30.02,North,360,1.2,1.2,86,0.00,CLR,,0.01,WeatherDisplay:10.37,2013-06-04 15:51:00,
2013-06-04 11:56:00,80.5,75.6,30.02,WNW,300,2.3,2.3,85,0.00,CLR,,0.01,WeatherDisplay:10.37,2013-06-04 15:56:00,
2013-06-04 12:01:00,80.6,75.7,30.02,WNW,300,1.2,1.2,85,0.00,CLR,,0.01,WeatherDisplay:10.37,2013-06-04 16:01:00,
2013-06-04 12:06:00,80.8,75.5,30.01,WNW,300,0.0,0.0,84,0.00,CLR,,0.01,WeatherDisplay:10.37,2013-06-04 16:06:00,
2013-06-04 12:11:00,81.1,75.4,30.01,NNE,23,2.3,2.3,83,0.00,CLR,,0.01,WeatherDisplay:10.37,2013-06-04 16:11:00,
2013-06-04 12:16:00,81.2,75.2,30.01,NNE,24,1.2,1.2,82,0.00,CLR,,0.01,WeatherDisplay:10.37,2013-06-04 16:16:00,
2013-06-04 12:21:00,81.2,74.4,30.01,North,355,1.2,1.2,80,0.00,CLR,,0.01,WeatherDisplay:10.37,2013-06-04 16:21:00,
2013-06-04 12:26:00,81.5,74.4,30.01,NNW,348,0.0,0.0,79,0.00,CLR,,0.01,WeatherDisplay:10.37,2013-06-04 16:26:00,
2013-06-04 12:31:00,82.0,74.8,30.01,North,5,0.0,0.0,79,0.00,CLR,,0.01,WeatherDisplay:10.37,2013-06-04 16:31:00,
2013-06-04 12:36:00,82.4,74.5,30.01,NNE,24,1.2,0.0,77,0.00,CLR,,0.01,WeatherDisplay:10.37,2013-06-04 16:36:00,
2013-06-04 12:41:00,82.4,74.5,30.01,ENE,69,1.2,1.2,77,0.00,CLR,,0.01,WeatherDisplay:10.37,2013-06-04 16:41:00,
2013-06-04 12:46:00,82.3,74.7,30.00,ENE,69,1.2,1.2,78,0.00,CLR,,0.01,WeatherDisplay:10.37,2013-06-04 16:46:00,
2013-06-04 12:51:00,82.8,74.5,30.00,ENE,68,2.3,2.3,76,0.00,CLR,,0.01,WeatherDisplay:10.37,2013-06-04 16:51:00,
2013-06-04 12:56:00,83.2,74.8,30.00,ENE,76,3.5,3.5,76,0.00,CLR,,0.01,WeatherDisplay:10.37,2013-06-04 16:56:00,
2013-06-04 13:01:00,83.2,74.8,30.00,ENE,67,3.5,3.5,76,0.00,CLR,,0.01,WeatherDisplay:10.37,2013-06-04 17:01:00,
2013-06-04 13:06:00,83.1,73.9,30.00,ENE,65,2.3,2.3,74,0.00,CLR,,0.01,WeatherDisplay:10.37,2013-06-04 17:06:00,
2013-06-04 13:11:00,83.3,74.1,30.00,NE,48,3.5,3.5,74,0.00,CLR,,0.01,WeatherDisplay:10.37,2013-06-04 17:11:00,
2013-06-04 13:16:00,84.1,73.7,29.99,ENE,78,3.5,3.5,71,0.00,CLR,,0.01,WeatherDisplay:10.37,2013-06-04 17:16:00,
2013-06-04 13:21:00,84.2,73.8,29.99,ENE,62,4.0,4.0,71,0.00,CLR,,0.01,WeatherDisplay:10.37,2013-06-04 17:21:00,
2013-06-04 13:26:00,84.3,73.0,29.99,ENE,60,1.2,0.0,69,0.00,CLR,,0.01,WeatherDisplay:10.37,2013-06-04 17:26:00,
2013-06-04 13:31:00,85.2,74.3,29.99,ENE,60,0.0,0.0,70,0.00,CLR,,0.01,WeatherDisplay:10.37,2013-06-04 17:31:00,
2013-06-04 13:36:00,86.3,74.5,29.99,NE,51,3.5,3.5,68,0.00,CLR,,0.01,WeatherDisplay:10.37,2013-06-04 17:36:00,
2013-06-04 13:41:00,86.6,74.3,29.99,NE,56,3.5,3.5,67,0.00,CLR,,0.01,WeatherDisplay:10.37,2013-06-04 17:41:00,
2013-06-04 13:46:00,86.4,74.1,29.99,NE,56,0.0,0.0,67,0.00,CLR,,0.01,WeatherDisplay:10.37,2013-06-04 17:46:00,
2013-06-04 13:51:00,86.7,74.4,29.99,NE,56,1.2,1.2,67,0.00,CLR,,0.01,WeatherDisplay:10.37,2013-06-04 17:51:00,
2013-06-04 13:56:00,86.1,74.7,29.98,NE,44,4.0,4.0,69,0.00,CLR,,0.01,WeatherDisplay:10.37,2013-06-04 17:56:00,
2013-06-04 14:01:00,85.3,74.0,29.98,NE,40,3.5,3.5,69,0.00,CLR,,0.01,WeatherDisplay:10.37,2013-06-04 18:01:00,
2013-06-04 14:06:00,84.8,74.8,29.98,ENE,68,5.8,5.8,72,0.00,CLR,,0.01,WeatherDisplay:10.37,2013-06-04 18:06:00,
2013-06-04 14:11:00,83.8,74.2,29.98,ENE,61,3.5,3.5,73,0.00,CLR,,0.01,WeatherDisplay:10.37,2013-06-04 18:11:00,
2013-06-04 14:16:00,83.7,74.9,29.98,ENE,65,3.5,3.5,75,0.00,CLR,,0.01,WeatherDisplay:10.37,2013-06-04 18:16:00,
2013-06-04 14:21:00,83.9,75.1,29.98,ENE,66,3.5,3.5,75,0.00,CLR,,0.01,WeatherDisplay:10.37,2013-06-04 18:21:00,
2013-06-04 14:26:00,83.8,75.0,29.97,East,94,3.5,3.5,75,0.00,CLR,,0.01,WeatherDisplay:10.37,2013-06-04 18:26:00,
2013-06-04 14:31:00,83.3,73.7,29.97,NE,56,4.6,4.6,73,0.00,CLR,,0.01,WeatherDisplay:10.37,2013-06-04 18:31:00,
2013-06-04 14:36:00,83.2,73.6,29.97,East,87,3.5,3.5,73,0.00,CLR,,0.01,WeatherDisplay:10.37,2013-06-04 18:36:00,
2013-06-04 14:41:00,82.8,72.8,29.97,ENE,65,5.8,5.8,72,0.00,CLR,,0.01,WeatherDisplay:10.37,2013-06-04 18:41:00,
2013-06-04 14:46:00,82.3,73.2,29.97,ESE,107,4.6,4.6,74,0.00,CLR,,0.01,WeatherDisplay:10.37,2013-06-04 18:46:00,
2013-06-04 14:51:00,82.0,72.9,29.98,East,88,4.0,4.0,74,0.00,CLR,,0.01,WeatherDisplay:10.37,2013-06-04 18:51:00,
2013-06-04 14:56:00,81.7,73.4,29.98,SSE,157,5.8,5.8,76,0.00,CLR,,0.01,WeatherDisplay:10.37,2013-06-04 18:56:00,
2013-06-04 15:01:00,80.8,74.4,29.98,South,175,6.9,6.9,81,0.00,CLR,,0.01,WeatherDisplay:10.37,2013-06-04 19:01:00,
2013-06-04 15:06:00,79.7,74.1,29.98,SW,229,3.0,3.0,83,0.00,CLR,,0.01,WeatherDisplay:10.37,2013-06-04 19:06:00,
2013-06-04 15:11:00,78.7,74.8,29.97,West,276,3.5,3.5,88,0.00,CLR,,0.01,WeatherDisplay:10.37,2013-06-04 19:11:00,
2013-06-04 15:16:00,77.7,74.9,29.97,WSW,257,1.2,1.2,91,0.00,CLR,,0.01,WeatherDisplay:10.37,2013-06-04 19:16:00,
2013-06-04 15:21:00,77.2,74.7,29.97,WSW,250,3.5,3.5,92,0.00,CLR,,0.01,WeatherDisplay:10.37,2013-06-04 19:21:00,
2013-06-04 15:26:00,76.9,74.7,29.97,WNW,284,3.5,3.5,93,0.00,CLR,,0.01,WeatherDisplay:10.37,2013-06-04 19:26:00,
2013-06-04 15:31:00,76.8,74.6,29.97,WNW,286,4.6,4.6,93,0.00,CLR,,0.01,WeatherDisplay:10.37,2013-06-04 19:31:00,
2013-06-04 15:36:00,76.6,74.7,29.97,NW,324,4.6,4.6,94,0.00,CLR,,0.01,WeatherDisplay:10.37,2013-06-04 19:36:00,
2013-06-04 15:41:00,76.8,75.3,29.96,NNW,341,3.5,3.5,95,0.00,CLR,,0.01,WeatherDisplay:10.37,2013-06-04 19:41:00,
2013-06-04 15:46:00,77.0,75.5,29.96,NNW,341,0.0,0.2,95,0.00,CLR,,0.01,WeatherDisplay:10.37,2013-06-04 19:46:00,
2013-06-04 15:51:00,77.2,75.7,29.96,NNW,343,1.2,0.0,95,0.00,CLR,,0.01,WeatherDisplay:10.37,2013-06-04 19:51:00,
2013-06-04 15:56:00,77.3,75.4,29.96,NNW,348,2.3,2.3,94,0.00,CLR,,0.01,WeatherDisplay:10.37,2013-06-04 19:56:00,
2013-06-04 16:01:00,77.4,75.9,29.96,North,350,0.0,0.0,95,0.00,CLR,,0.01,WeatherDisplay:10.37,2013-06-04 20:01:00,
2013-06-04 16:06:00,77.6,76.1,29.96,North,355,1.2,1.2,95,0.00,CLR,,0.01,WeatherDisplay:10.37,2013-06-04 20:06:00,
2013-06-04 16:11:00,77.9,76.4,29.96,North,355,0.0,0.0,95,0.00,CLR,,0.01,WeatherDisplay:10.37,2013-06-04 20:11:00,
2013-06-04 16:16:00,77.9,75.7,29.96,North,5,2.0,2.0,93,0.00,CLR,,0.01,WeatherDisplay:10.37,2013-06-04 20:16:00,
2013-06-04 16:21:00,78.0,75.5,29.96,NE,51,2.3,2.3,92,0.00,CLR,,0.01,WeatherDisplay:10.37,2013-06-04 20:21:00,
2013-06-04 16:26:00,78.1,74.9,29.96,NE,51,2.3,2.3,90,0.00,CLR,,0.01,WeatherDisplay:10.37,2013-06-04 20:26:00,
2013-06-04 16:31:00,78.4,75.9,29.96,NE,51,1.2,1.2,92,0.00,CLR,,0.01,WeatherDisplay:10.37,2013-06-04 20:31:00,
2013-06-04 16:36:00,78.7,75.8,29.96,NE,51,1.2,1.2,91,0.00,CLR,,0.01,WeatherDisplay:10.37,2013-06-04 20:36:00,
2013-06-04 16:41:00,78.9,76.0,29.96,NE,51,1.2,1.2,91,0.00,CLR,,0.01,WeatherDisplay:10.37,2013-06-04 20:41:00,
2013-06-04 16:46:00,79.2,75.7,29.96,ENE,69,5.0,5.0,89,0.00,CLR,,0.01,WeatherDisplay:10.37,2013-06-04 20:46:00,
2013-06-04 16:51:00,79.2,75.3,29.96,ENE,69,4.6,4.6,88,0.00,CLR,,0.01,WeatherDisplay:10.37,2013-06-04 20:51:00,
2013-06-04 16:56:00,79.3,75.1,29.96,ENE,69,3.5,3.5,87,0.00,CLR,,0.01,WeatherDisplay:10.37,2013-06-04 20:56:00,
2013-06-04 17:01:00,79.5,75.3,29.96,ENE,71,3.5,3.5,87,0.00,CLR,,0.01,WeatherDisplay:10.37,2013-06-04 21:01:00,
2013-06-04 17:06:00,79.7,75.1,29.96,ENE,63,3.5,3.5,86,0.00,CLR,,0.01,WeatherDisplay:10.37,2013-06-04 21:06:00,
2013-06-04 17:11:00,80.0,75.4,29.96,East,90,4.6,4.6,86,0.00,CLR,,0.01,WeatherDisplay:10.37,2013-06-04 21:11:00,
2013-06-04 17:16:00,80.1,75.5,29.95,ENE,63,5.8,5.8,86,0.00,CLR,,0.01,WeatherDisplay:10.37,2013-06-04 21:16:00,
2013-06-04 17:21:00,80.2,75.6,29.95,East,91,5.8,5.8,86,0.00,CLR,,0.01,WeatherDisplay:10.37,2013-06-04 21:21:00,
2013-06-04 17:26:00,80.1,75.2,29.95,ENE,74,4.0,4.0,85,0.00,CLR,,0.01,WeatherDisplay:10.37,2013-06-04 21:26:00,
2013-06-04 17:31:00,80.0,74.4,29.95,East,96,4.6,4.6,83,0.00,CLR,,0.01,WeatherDisplay:10.37,2013-06-04 21:31:00,
2013-06-04 17:36:00,80.0,74.7,29.95,East,95,5.0,5.0,84,0.00,CLR,,0.01,WeatherDisplay:10.37,2013-06-04 21:36:00,
2013-06-04 17:41:00,80.0,74.0,29.95,ESE,119,6.9,6.9,82,0.00,CLR,,0.01,WeatherDisplay:10.37,2013-06-04 21:41:00,
2013-06-04 17:46:00,79.9,74.3,29.95,SE,125,5.8,5.8,83,0.00,CLR,,0.01,WeatherDisplay:10.37,2013-06-04 21:46:00,
2013-06-04 17:51:00,79.8,73.1,29.95,ESE,122,5.8,5.8,80,0.00,CLR,,0.01,WeatherDisplay:10.37,2013-06-04 21:51:00,
2013-06-04 17:56:00,79.8,73.8,29.96,East,88,3.5,3.5,82,0.00,CLR,,0.01,WeatherDisplay:10.37,2013-06-04 21:56:00,
2013-06-04 18:01:00,79.7,73.7,29.96,ESE,104,5.0,5.0,82,0.00,CLR,,0.01,WeatherDisplay:10.37,2013-06-04 22:01:00,
2013-06-04 18:06:00,79.7,73.7,29.96,East,80,5.8,5.8,82,0.00,CLR,,0.01,WeatherDisplay:10.37,2013-06-04 22:06:00,
2013-06-04 18:11:00,79.7,74.1,29.96,East,100,4.6,4.6,83,0.00,CLR,,0.01,WeatherDisplay:10.37,2013-06-04 22:11:00,
2013-06-04 18:16:00,79.7,73.7,29.96,ESE,105,5.8,5.8,82,0.00,CLR,,0.01,WeatherDisplay:10.37,2013-06-04 22:16:00,
2013-06-04 18:21:00,79.7,73.7,29.96,ENE,74,4.0,4.0,82,0.00,CLR,,0.01,WeatherDisplay:10.37,2013-06-04 22:21:00,
2013-06-04 18:26:00,79.6,74.0,29.96,ENE,76,3.5,3.5,83,0.00,CLR,,0.01,WeatherDisplay:10.37,2013-06-04 22:26:00,
2013-06-04 18:31:00,79.5,73.9,29.96,East,89,3.5,3.5,83,0.00,CLR,,0.01,WeatherDisplay:10.37,2013-06-04 22:31:00,
2013-06-04 18:36:00,79.4,73.8,29.96,East,88,3.5,3.5,83,0.00,CLR,,0.01,WeatherDisplay:10.37,2013-06-04 22:36:00,
2013-06-04 18:41:00,79.3,73.7,29.97,ESE,112,3.5,3.5,83,0.00,CLR,,0.01,WeatherDisplay:10.37,2013-06-04 22:41:00,
2013-06-04 18:46:00,79.2,73.6,29.97,East,96,2.3,2.3,83,0.00,CLR,,0.01,WeatherDisplay:10.37,2013-06-04 22:46:00,
2013-06-04 18:51:00,79.3,73.7,29.97,East,96,2.3,2.3,83,0.00,CLR,,0.01,WeatherDisplay:10.37,2013-06-04 22:51:00,
2013-06-04 18:56:00,79.3,73.7,29.97,East,87,3.5,3.5,83,0.00,CLR,,0.01,WeatherDisplay:10.37,2013-06-04 22:56:00,
2013-06-04 19:01:00,79.3,74.4,29.97,East,86,1.2,1.2,85,0.00,CLR,,0.01,WeatherDisplay:10.37,2013-06-04 23:01:00,
2013-06-04 19:06:00,79.3,74.7,29.97,East,86,1.2,1.2,86,0.00,CLR,,0.01,WeatherDisplay:10.37,2013-06-04 23:06:00,
2013-06-04 19:11:00,79.2,74.6,29.97,East,86,2.0,2.0,86,0.00,CLR,,0.01,WeatherDisplay:10.37,2013-06-04 23:11:00,
2013-06-04 19:16:00,79.1,74.5,29.97,East,86,2.3,2.3,86,0.00,CLR,,0.01,WeatherDisplay:10.37,2013-06-04 23:16:00,
2013-06-04 19:21:00,79.1,74.5,29.97,East,86,2.3,2.3,86,0.00,CLR,,0.01,WeatherDisplay:10.37,2013-06-04 23:21:00,
2013-06-04 19:26:00,78.9,74.4,29.98,East,85,2.3,2.3,86,0.00,CLR,,0.01,WeatherDisplay:10.37,2013-06-04 23:26:00,
2013-06-04 19:31:00,78.9,74.4,29.98,East,85,2.3,2.3,86,0.00,CLR,,0.01,WeatherDisplay:10.37,2013-06-04 23:31:00,
2013-06-04 19:36:00,78.7,74.2,29.98,East,84,2.3,2.3,86,0.00,CLR,,0.01,WeatherDisplay:10.37,2013-06-04 23:36:00,
2013-06-04 19:41:00,78.7,74.2,29.98,East,84,1.2,1.2,86,0.00,CLR,,0.01,WeatherDisplay:10.37,2013-06-04 23:41:00,
2013-06-04 19:46:00,78.6,74.1,29.98,East,94,1.2,0.0,86,0.00,CLR,,0.01,WeatherDisplay:10.37,2013-06-04 23:46:00,
2013-06-04 19:51:00,78.6,74.1,29.99,East,94,2.3,2.3,86,0.00,CLR,,0.01,WeatherDisplay:10.37,2013-06-04 23:51:00,
2013-06-04 19:56:00,78.6,74.1,29.99,East,94,1.2,1.2,86,0.00,CLR,,0.01,WeatherDisplay:10.37,2013-06-04 23:56:00,
2013-06-04 20:01:00,78.5,74.3,29.99,East,94,1.2,1.2,87,0.00,CLR,,0.01,WeatherDisplay:10.37,2013-06-05 00:01:00,
2013-06-04 20:06:00,78.5,74.3,29.99,East,94,1.2,0.0,87,0.00,CLR,,0.01,WeatherDisplay:10.37,2013-06-05 00:06:00,
2013-06-04 20:11:00,78.4,74.2,29.99,East,94,0.0,0.0,87,0.00,CLR,,0.01,WeatherDisplay:10.37,2013-06-05 00:11:00,
2013-06-04 20:16:00,78.3,74.5,29.99,East,94,1.2,0.0,88,0.00,CLR,,0.01,WeatherDisplay:10.37,2013-06-05 00:16:00,
2013-06-04 20:21:00,78.2,74.4,29.99,East,94,0.0,0.0,88,0.00,CLR,,0.01,WeatherDisplay:10.37,2013-06-05 00:21:00,
2013-06-04 20:26:00,78.2,74.4,29.99,East,94,1.2,1.2,88,0.00,CLR,,0.01,WeatherDisplay:10.37,2013-06-05 00:26:00,
2013-06-04 20:31:00,78.1,74.3,29.99,East,101,2.3,2.3,88,0.00,CLR,,0.01,WeatherDisplay:10.37,2013-06-05 00:31:00,
2013-06-04 20:36:00,78.1,73.9,30.00,ESE,118,2.3,2.3,87,0.00,CLR,,0.01,WeatherDisplay:10.37,2013-06-05 00:36:00,
2013-06-04 20:41:00,78.1,73.9,30.00,SE,132,4.0,4.0,87,0.00,CLR,,0.01,WeatherDisplay:10.37,2013-06-05 00:41:00,
2013-06-04 20:46:00,78.0,73.8,29.99,SE,130,4.0,4.0,87,0.00,CLR,,0.01,WeatherDisplay:10.37,2013-06-05 00:46:00,
2013-06-04 20:51:00,78.0,73.8,30.00,SE,124,3.5,3.5,87,0.00,CLR,,0.01,WeatherDisplay:10.37,2013-06-05 00:51:00,
2013-06-04 20:56:00,78.0,73.8,29.99,SE,126,3.5,3.5,87,0.00,CLR,,0.01,WeatherDisplay:10.37,2013-06-05 00:56:00,
2013-06-04 21:01:00,78.0,73.8,30.00,ESE,122,3.5,3.5,87,0.00,CLR,,0.01,WeatherDisplay:10.37,2013-06-05 01:01:00,
2013-06-04 21:06:00,78.0,73.8,29.99,ESE,116,3.5,3.5,87,0.00,CLR,,0.01,WeatherDisplay:10.37,2013-06-05 01:06:00,
2013-06-04 21:11:00,78.0,73.8,29.99,SE,128,3.5,3.5,87,0.00,CLR,,0.01,WeatherDisplay:10.37,2013-06-05 01:11:00,
2013-06-04 21:16:00,78.0,73.8,29.99,ESE,116,3.5,3.5,87,0.00,CLR,,0.01,WeatherDisplay:10.37,2013-06-05 01:16:00,
2013-06-04 21:21:00,78.0,73.8,29.99,SE,129,3.5,3.5,87,0.00,CLR,,0.01,WeatherDisplay:10.37,2013-06-05 01:21:00,
2013-06-04 21:26:00,78.0,73.8,29.99,ESE,111,3.5,3.5,87,0.00,CLR,,0.01,WeatherDisplay:10.37,2013-06-05 01:26:00,
2013-06-04 21:31:00,78.0,74.2,29.99,East,94,3.5,3.5,88,0.00,CLR,,0.01,WeatherDisplay:10.37,2013-06-05 01:31:00,
2013-06-04 21:36:00,78.0,74.2,29.99,East,82,3.5,3.5,88,0.00,CLR,,0.01,WeatherDisplay:10.37,2013-06-05 01:36:00,
2013-06-04 21:41:00,78.0,74.2,29.98,ENE,77,3.5,3.5,88,0.00,CLR,,0.01,WeatherDisplay:10.37,2013-06-05 01:41:00,
2013-06-04 21:46:00,77.9,74.1,29.98,NE,54,5.0,5.0,88,0.00,CLR,,0.01,WeatherDisplay:10.37,2013-06-05 01:46:00,
2013-06-04 21:51:00,77.9,74.1,29.98,ENE,71,4.6,4.6,88,0.00,CLR,,0.01,WeatherDisplay:10.37,2013-06-05 01:51:00,
2013-06-04 21:56:00,77.9,74.1,29.98,ENE,69,3.5,3.5,88,0.00,CLR,,0.01,WeatherDisplay:10.37,2013-06-05 01:56:00,
2013-06-04 22:01:00,77.9,74.1,29.98,ENE,69,3.5,3.5,88,0.00,CLR,,0.01,WeatherDisplay:10.37,2013-06-05 02:01:00,
2013-06-04 22:06:00,77.8,73.6,29.98,ENE,66,4.0,4.0,87,0.00,CLR,,0.01,WeatherDisplay:10.37,2013-06-05 02:06:00,
2013-06-04 22:11:00,77.8,73.6,29.98,ENE,76,3.5,3.5,87,0.00,CLR,,0.01,WeatherDisplay:10.37,2013-06-05 02:11:00,
2013-06-04 22:16:00,77.8,73.3,29.98,East,101,3.5,3.5,86,0.00,CLR,,0.01,WeatherDisplay:10.37,2013-06-05 02:16:00,
2013-06-04 22:21:00,77.9,73.4,29.98,East,83,3.5,3.5,86,0.00,CLR,,0.01,WeatherDisplay:10.37,2013-06-05 02:21:00,
2013-06-04 22:26:00,77.9,73.4,29.98,East,88,3.5,3.5,86,0.00,CLR,,0.01,WeatherDisplay:10.37,2013-06-05 02:26:00,
2013-06-04 22:31:00,78.0,73.1,29.99,ESE,109,3.5,3.5,85,0.00,CLR,,0.01,WeatherDisplay:10.37,2013-06-05 02:31:00,
2013-06-04 22:36:00,78.0,73.1,29.99,ESE,109,2.0,2.0,85,0.00,CLR,,0.01,WeatherDisplay:10.37,2013-06-05 02:36:00,
2013-06-04 22:41:00,78.1,73.2,29.99,East,92,3.5,3.5,85,0.00,CLR,,0.01,WeatherDisplay:10.37,2013-06-05 02:41:00,
2013-06-04 22:46:00,78.2,73.3,29.99,ESE,104,3.5,3.5,85,0.00,CLR,,0.01,WeatherDisplay:10.37,2013-06-05 02:46:00,
2013-06-04 22:51:00,78.2,73.3,29.99,East,87,3.5,3.5,85,0.00,CLR,,0.01,WeatherDisplay:10.37,2013-06-05 02:51:00,
2013-06-04 22:56:00,78.2,73.3,29.99,East,85,3.5,3.5,85,0.00,CLR,,0.01,WeatherDisplay:10.37,2013-06-05 02:56:00,
2013-06-04 23:01:00,78.3,73.4,29.99,ESE,103,3.5,3.5,85,0.00,CLR,,0.01,WeatherDisplay:10.37,2013-06-05 03:01:00,
2013-06-04 23:06:00,78.3,73.4,29.99,East,93,3.5,3.5,85,0.00,CLR,,0.01,WeatherDisplay:10.37,2013-06-05 03:06:00,
2013-06-04 23:11:00,78.3,73.8,29.98,East,88,3.5,3.5,86,0.00,CLR,,0.01,WeatherDisplay:10.37,2013-06-05 03:11:00,
2013-06-04 23:16:00,78.3,74.1,29.99,ESE,103,3.5,3.5,87,0.00,CLR,,0.01,WeatherDisplay:10.37,2013-06-05 03:16:00,
2013-06-04 23:21:00,78.4,74.5,29.99,East,93,2.3,2.3,88,0.00,CLR,,0.01,WeatherDisplay:10.37,2013-06-05 03:21:00,
2013-06-04 23:26:00,78.5,75.0,29.98,ESE,113,4.0,4.0,89,0.00,CLR,,0.01,WeatherDisplay:10.37,2013-06-05 03:26:00,
2013-06-04 23:31:00,78.6,75.1,29.98,ESE,119,4.6,4.6,89,0.00,CLR,,0.01,WeatherDisplay:10.37,2013-06-05 03:31:00,
2013-06-04 23:36:00,78.7,75.2,29.98,SE,124,4.0,4.1,89,0.00,CLR,,0.01,WeatherDisplay:10.37,2013-06-05 03:36:00,
2013-06-04 23:41:00,78.8,75.3,29.98,SSE,151,8.0,8.0,89,0.00,CLR,,0.01,WeatherDisplay:10.37,2013-06-05 03:41:00,
2013-06-04 23:46:00,78.9,75.0,29.98,ESE,114,5.8,5.8,88,0.00,CLR,,0.01,WeatherDisplay:10.37,2013-06-05 03:46:00,
2013-06-04 23:51:00,78.9,74.7,29.98,SE,124,5.8,5.8,87,0.00,CLR,,0.01,WeatherDisplay:10.37,2013-06-05 03:51:00,
2013-06-04 23:56:00,79.0,74.8,29.98,SE,129,5.8,5.8,87,0.00,CLR,,0.01,WeatherDisplay:10.37,2013-06-05 03:56:00,